createdAt,value
2023-05-23T00:01:38.647Z,24.20
2023-05-23T00:04:06.027Z,24.93
2023-05-23T00:06:32.818Z,23.90
2023-05-23T00:08:59.890Z,23.73
2023-05-23T00:11:27.464Z,21.60
2023-05-23T00:13:54.216Z,22.67
2023-05-23T00:16:21.775Z,22.07
2023-05-23T00:18:50.432Z,22.03
2023-05-23T00:21:17.300Z,21.13
2023-05-23T00:23:44.025Z,22.00
2023-05-23T00:26:10.796Z,19.77
2023-05-23T00:28:41.088Z,21.43
2023-05-23T00:31:07.868Z,20.70
2023-05-23T00:33:34.639Z,21.67
2023-05-23T00:36:02.344Z,21.40
2023-05-23T00:38:30.175Z,21.97
2023-05-23T00:40:56.855Z,22.07
2023-05-23T00:43:23.564Z,22.67
2023-05-23T00:45:50.583Z,21.37
2023-05-23T00:48:17.491Z,21.60
2023-05-23T00:50:44.801Z,21.20
2023-05-23T00:53:12.662Z,21.77
2023-05-23T00:55:39.968Z,23.37
2023-05-23T00:58:06.954Z,22.47
2023-05-23T01:00:34.971Z,22.50
2023-05-23T01:03:02.093Z,22.43
2023-05-23T01:05:29.054Z,22.93
2023-05-23T01:07:55.901Z,23.87
2023-05-23T01:13:07.511Z,24.00
2023-05-23T01:15:34.278Z,25.53
2023-05-23T01:18:08.618Z,24.27
2023-05-23T01:20:38.377Z,24.10
2023-05-23T01:23:12.243Z,25.27
2023-05-23T01:25:40.189Z,25.67
2023-05-23T01:28:08.474Z,24.60
2023-05-23T01:30:38.175Z,25.67
2023-05-23T01:33:05.114Z,23.33
2023-05-23T01:35:32.930Z,24.47
2023-05-23T01:37:59.802Z,24.10
2023-05-23T01:40:27.082Z,23.20
2023-05-23T01:42:55.527Z,20.80
2023-05-23T01:45:22.321Z,22.20
2023-05-23T01:47:50.654Z,20.93
2023-05-23T01:50:17.999Z,17.43
2023-05-23T01:52:45.385Z,19.30
2023-05-23T01:55:14.446Z,20.43
2023-05-23T01:57:41.919Z,19.07
2023-05-23T02:00:11.196Z,17.90
2023-05-23T02:02:41.082Z,17.13
2023-05-23T02:05:10.095Z,17.30
2023-05-23T02:07:37.211Z,16.27
2023-05-23T02:10:04.656Z,18.13
2023-05-23T02:12:31.630Z,17.53
2023-05-23T02:14:58.870Z,18.23
2023-05-23T02:17:25.818Z,20.10
2023-05-23T02:19:52.754Z,21.67
2023-05-23T02:22:23.046Z,21.30
2023-05-23T02:24:49.996Z,21.83
2023-05-23T02:27:17.889Z,21.73
2023-05-23T02:29:44.842Z,22.77
2023-05-23T02:32:12.425Z,21.80
2023-05-23T02:34:39.205Z,21.30
2023-05-23T02:37:06.559Z,20.73
2023-05-23T02:39:36.184Z,20.93
2023-05-23T02:42:03.508Z,19.80
2023-05-23T02:44:30.562Z,19.07
2023-05-23T02:46:57.543Z,17.87
2023-05-23T02:49:24.552Z,18.63
2023-05-23T02:51:51.830Z,17.50
2023-05-23T02:54:18.842Z,17.97
2023-05-23T02:56:46.164Z,16.67
2023-05-23T02:59:13.870Z,16.43
2023-05-23T03:01:40.917Z,17.33
2023-05-23T03:04:07.843Z,16.00
2023-05-23T03:06:37.143Z,13.93
2023-05-23T03:09:04.720Z,14.00
2023-05-23T03:11:31.503Z,13.93
2023-05-23T03:13:59.848Z,13.17
2023-05-23T03:16:26.735Z,14.33
2023-05-23T03:18:53.924Z,13.87
2023-05-23T03:21:21.180Z,14.80
2023-05-23T03:23:47.970Z,14.30
2023-05-23T03:26:15.241Z,14.63
2023-05-23T03:28:41.956Z,14.93
2023-05-23T03:31:08.734Z,15.07
2023-05-23T03:33:38.247Z,15.73
2023-05-23T03:36:06.871Z,16.73
2023-05-23T03:38:33.648Z,16.33
2023-05-23T03:41:00.457Z,17.53
2023-05-23T03:43:27.348Z,16.80
2023-05-23T03:45:54.317Z,18.87
2023-05-23T03:48:21.129Z,17.93
2023-05-23T03:50:48.702Z,18.27
2023-05-23T03:53:15.772Z,17.90
2023-05-23T03:55:43.725Z,17.73
2023-05-23T03:58:12.196Z,18.50
2023-05-23T04:00:41.221Z,18.43
2023-05-23T04:03:10.899Z,17.00
2023-05-23T04:05:39.151Z,19.20
2023-05-23T04:08:06.153Z,19.03
2023-05-23T04:10:33.212Z,19.33
2023-05-23T04:13:00.003Z,18.87
2023-05-23T04:15:28.250Z,18.97
2023-05-23T04:17:58.604Z,17.40
2023-05-23T04:20:26.894Z,19.00
2023-05-23T04:22:53.773Z,18.27
2023-05-23T04:25:21.329Z,17.20
2023-05-23T04:28:01.967Z,16.80
2023-05-23T04:30:30.710Z,17.20
2023-05-23T04:33:00.300Z,18.00
2023-05-23T04:35:29.009Z,17.50
2023-05-23T04:37:57.031Z,17.63
2023-05-23T04:40:26.072Z,17.87
2023-05-23T04:43:01.208Z,18.33
2023-05-23T04:45:45.038Z,18.10
2023-05-23T04:48:25.483Z,17.67
2023-05-23T04:50:52.826Z,17.63
2023-05-23T04:53:20.016Z,16.27
2023-05-23T04:55:47.467Z,16.33
2023-05-23T04:58:17.280Z,15.23
2023-05-23T05:00:44.932Z,14.63
2023-05-23T05:03:14.500Z,15.17
2023-05-23T05:05:44.385Z,14.40
2023-05-23T05:08:11.764Z,14.60
2023-05-23T05:10:40.930Z,14.97
2023-05-23T05:13:11.376Z,15.80
2023-05-23T05:15:44.478Z,15.07
2023-05-23T05:18:12.473Z,13.57
2023-05-23T05:20:41.042Z,13.87
2023-05-23T05:23:09.998Z,14.07
2023-05-23T05:25:38.519Z,14.73
2023-05-23T05:28:06.281Z,14.30
2023-05-23T05:30:37.713Z,12.93
2023-05-23T05:33:06.425Z,13.73
2023-05-23T05:35:34.244Z,14.00
2023-05-23T05:38:05.554Z,14.20
2023-05-23T05:40:32.983Z,13.93
2023-05-23T05:43:00.861Z,13.53
2023-05-23T05:45:27.987Z,13.07
2023-05-23T05:47:54.864Z,13.90
2023-05-23T05:50:23.869Z,12.43
2023-05-23T05:52:51.346Z,12.70
2023-05-23T05:55:19.009Z,12.40
2023-05-23T05:57:51.378Z,12.40
2023-05-23T06:00:19.566Z,12.53
2023-05-23T06:06:30.428Z,11.83
2023-05-23T06:08:57.388Z,10.97
2023-05-23T06:11:24.261Z,10.67
2023-05-23T06:13:51.163Z,10.43
2023-05-23T06:16:19.051Z,10.70
2023-05-23T06:18:46.450Z,11.00
2023-05-23T06:21:13.345Z,11.87
2023-05-23T06:23:40.197Z,10.10
2023-05-23T06:26:10.877Z,10.67
2023-05-23T06:28:40.029Z,9.90
2023-05-23T06:31:10.100Z,10.10
2023-05-23T06:33:37.091Z,11.33
2023-05-23T06:36:03.936Z,10.83
2023-05-23T06:38:33.801Z,11.70
2023-05-23T06:41:04.567Z,10.67
2023-05-23T06:43:32.107Z,10.97
2023-05-23T06:46:21.608Z,11.37
2023-05-23T06:48:50.707Z,12.33
2023-05-23T06:51:21.328Z,11.67
2023-05-23T06:53:48.654Z,10.93
2023-05-23T06:56:15.835Z,12.23
2023-05-23T06:58:52.927Z,13.37
2023-05-23T07:01:20.114Z,12.67
2023-05-23T07:03:50.928Z,12.37
2023-05-23T07:06:18.323Z,13.03
2023-05-23T07:08:46.960Z,12.23
2023-05-23T07:11:15.184Z,12.10
2023-05-23T07:13:50.236Z,11.80
2023-05-23T07:16:35.387Z,11.93
2023-05-23T07:19:06.075Z,11.00
2023-05-23T07:21:36.598Z,10.83
2023-05-23T07:24:03.997Z,9.83
2023-05-23T07:26:31.362Z,10.10
2023-05-23T07:28:59.139Z,9.23
2023-05-23T07:31:27.171Z,9.90
2023-05-23T07:33:57.422Z,10.83
2023-05-23T07:36:50.444Z,8.97
2023-05-23T07:39:22.311Z,9.40
2023-05-23T07:41:50.638Z,10.10
2023-05-23T07:44:20.216Z,10.10
2023-05-23T07:46:48.551Z,9.77
2023-05-23T07:49:15.859Z,10.00
2023-05-23T07:51:43.063Z,10.60
2023-05-23T07:54:10.930Z,10.33
2023-05-23T07:56:40.500Z,10.87
2023-05-23T07:59:08.880Z,11.07
2023-05-23T08:01:35.831Z,11.70
2023-05-23T08:04:07.276Z,11.40
2023-05-23T08:06:48.454Z,11.43
2023-05-23T08:09:19.712Z,10.60
2023-05-23T08:11:51.189Z,11.57
2023-05-23T08:14:18.570Z,12.00
2023-05-23T08:16:54.248Z,11.63
2023-05-23T08:19:24.182Z,11.90
2023-05-23T08:21:53.294Z,11.57
2023-05-23T08:24:20.722Z,12.30
2023-05-23T08:26:48.197Z,12.63
2023-05-23T08:31:42.850Z,8.90
2023-05-23T08:34:11.142Z,9.70
2023-05-23T08:36:40.341Z,11.03
2023-05-23T08:39:12.610Z,9.77
2023-05-23T08:41:54.589Z,8.47
2023-05-23T08:44:21.384Z,9.80
2023-05-23T08:46:53.676Z,9.07
2023-05-23T08:49:42.585Z,10.57
2023-05-23T08:52:11.376Z,10.30
2023-05-23T08:54:41.241Z,11.53
2023-05-23T08:57:08.077Z,9.70
2023-05-23T08:59:41.364Z,10.33
2023-05-23T09:02:10.912Z,9.43
2023-05-23T09:04:37.898Z,9.07
2023-05-23T09:07:13.014Z,9.13
2023-05-23T09:09:40.611Z,9.37
2023-05-23T09:12:10.438Z,9.27
2023-05-23T09:14:37.591Z,9.70
2023-05-23T09:17:07.798Z,8.93
2023-05-23T09:19:34.801Z,8.30
2023-05-23T09:22:14.784Z,7.73
2023-05-23T09:24:56.580Z,8.23
2023-05-23T09:27:23.526Z,7.47
2023-05-23T09:29:50.830Z,7.37
2023-05-23T09:32:19.904Z,7.97
2023-05-23T09:34:57.572Z,7.37
2023-05-23T09:37:37.998Z,7.60
2023-05-23T09:40:12.587Z,7.07
2023-05-23T09:42:44.411Z,6.67
2023-05-23T09:45:12.010Z,6.63
2023-05-23T09:47:38.817Z,6.57
2023-05-23T09:50:06.309Z,6.77
2023-05-23T09:52:39.050Z,6.93
2023-05-23T09:55:06.905Z,5.67
2023-05-23T09:57:40.510Z,6.10
2023-05-23T10:00:11.246Z,6.80
2023-05-23T10:03:00.084Z,6.90
2023-05-23T10:05:45.509Z,7.43
2023-05-23T10:08:14.734Z,6.80
2023-05-23T10:10:50.850Z,7.60
2023-05-23T10:13:18.206Z,6.57
2023-05-23T10:15:45.092Z,7.37
2023-05-23T10:18:26.993Z,7.13
2023-05-23T10:20:54.735Z,7.17
2023-05-23T10:23:22.077Z,6.60
2023-05-23T10:25:49.211Z,6.10
2023-05-23T10:28:16.286Z,6.03
2023-05-23T10:30:43.545Z,6.43
2023-05-23T10:33:12.840Z,5.80
2023-05-23T10:35:47.518Z,5.90
2023-05-23T10:38:17.409Z,5.60
2023-05-23T10:40:50.775Z,5.53
2023-05-23T10:43:36.592Z,4.93
2023-05-23T10:46:03.500Z,5.67
2023-05-23T10:48:37.523Z,4.93
2023-05-23T10:51:05.391Z,5.37
2023-05-23T10:53:32.926Z,5.10
2023-05-23T10:56:00.112Z,5.63
2023-05-23T10:58:30.196Z,5.13
2023-05-23T11:01:00.144Z,5.33
2023-05-23T11:03:35.984Z,5.40
2023-05-23T11:06:03.519Z,6.67
2023-05-23T11:08:46.896Z,5.57
2023-05-23T11:11:15.427Z,6.13
2023-05-23T11:14:00.860Z,5.83
2023-05-23T11:16:29.098Z,5.87
2023-05-23T11:19:15.567Z,5.90
2023-05-23T11:21:43.456Z,5.03
2023-05-23T11:24:10.306Z,5.40
2023-05-23T11:26:37.299Z,4.47
2023-05-23T11:29:08.378Z,5.40
2023-05-23T11:31:38.771Z,5.00
2023-05-23T11:34:05.582Z,5.57
2023-05-23T11:36:32.762Z,4.83
2023-05-23T11:39:02.942Z,5.03
2023-05-23T11:41:30.719Z,4.37
2023-05-23T11:43:58.856Z,5.47
2023-05-23T11:46:26.231Z,4.87
2023-05-23T11:48:54.933Z,4.63
2023-05-23T11:51:22.075Z,4.30
2023-05-23T11:53:48.874Z,4.20
2023-05-23T11:56:16.453Z,4.40
2023-05-23T11:58:45.416Z,4.37
2023-05-23T12:01:13.007Z,3.80
2023-05-23T12:03:51.429Z,4.80
2023-05-23T12:06:22.080Z,5.20
2023-05-23T12:08:48.864Z,4.60
2023-05-23T12:11:15.889Z,4.50
2023-05-23T12:13:43.119Z,4.57
2023-05-23T12:16:10.199Z,3.80
2023-05-23T12:18:37.767Z,4.23
2023-05-23T12:21:09.050Z,4.60
2023-05-23T12:23:36.630Z,3.83
2023-05-23T12:26:12.529Z,3.67
2023-05-23T12:28:41.208Z,3.37
2023-05-23T12:31:16.962Z,4.13
2023-05-23T12:33:44.750Z,3.70
2023-05-23T12:36:15.050Z,3.70
2023-05-23T12:38:45.618Z,3.53
2023-05-23T12:41:15.760Z,3.60
2023-05-23T12:43:49.851Z,3.40
2023-05-23T12:46:17.116Z,3.53
2023-05-23T12:48:43.936Z,3.07
2023-05-23T12:51:10.927Z,3.77
2023-05-23T12:53:37.883Z,3.33
2023-05-23T12:56:05.683Z,3.30
2023-05-23T12:58:32.825Z,3.07
2023-05-23T13:00:59.630Z,3.00
2023-05-23T13:03:26.491Z,2.93
2023-05-23T13:05:54.793Z,3.40
2023-05-23T13:08:22.648Z,3.53
2023-05-23T13:10:49.738Z,3.13
2023-05-23T13:13:16.773Z,2.50
2023-05-23T13:15:43.884Z,3.20
2023-05-23T13:18:11.712Z,3.30
2023-05-23T13:20:38.457Z,2.60
2023-05-23T13:23:05.860Z,2.90
2023-05-23T13:25:32.638Z,3.40
2023-05-23T13:27:59.449Z,3.40
2023-05-23T13:30:26.210Z,2.77
2023-05-23T13:32:52.997Z,2.80
2023-05-23T13:35:19.782Z,2.80
2023-05-23T13:37:47.032Z,2.70
2023-05-23T13:40:18.547Z,2.83
2023-05-23T13:42:46.099Z,2.83
2023-05-23T13:45:12.899Z,3.30
2023-05-23T13:47:39.816Z,3.20
2023-05-23T13:50:07.505Z,3.10
2023-05-23T13:52:34.414Z,2.77
2023-05-23T13:55:01.822Z,2.90
2023-05-23T13:57:28.658Z,3.33
2023-05-23T13:59:55.572Z,3.10
2023-05-23T14:02:23.028Z,3.37
2023-05-23T14:04:53.112Z,2.77
2023-05-23T14:07:20.692Z,3.43
2023-05-23T14:09:47.478Z,3.10
2023-05-23T14:12:15.053Z,2.80
2023-05-23T14:14:41.881Z,3.13
2023-05-23T14:17:14.116Z,2.73
2023-05-23T14:19:40.903Z,3.33
2023-05-23T14:22:07.782Z,3.17
2023-05-23T14:24:34.998Z,3.70
2023-05-23T14:27:02.764Z,3.30
2023-05-23T14:29:29.656Z,3.20
2023-05-23T14:31:56.608Z,3.33
2023-05-23T14:34:23.505Z,3.70
2023-05-23T14:36:50.571Z,3.60
2023-05-23T14:39:17.467Z,3.40
2023-05-23T14:41:44.864Z,3.97
2023-05-23T14:44:11.712Z,3.20
2023-05-23T14:46:38.938Z,2.97
2023-05-23T14:49:06.273Z,3.40
2023-05-23T14:51:46.218Z,3.17
2023-05-23T14:54:17.175Z,3.47
2023-05-23T14:56:44.016Z,3.20
2023-05-23T14:59:11.222Z,4.00
2023-05-23T15:01:40.122Z,3.10
2023-05-23T15:04:09.826Z,3.73
2023-05-23T15:06:39.468Z,3.40
2023-05-23T15:09:07.792Z,2.80
2023-05-23T15:11:39.155Z,3.60
2023-05-23T15:14:06.327Z,3.73
2023-05-23T15:16:35.349Z,3.40
2023-05-23T15:19:02.520Z,3.00
2023-05-23T15:21:29.358Z,3.30
2023-05-23T15:23:57.839Z,3.13
2023-05-23T15:26:25.234Z,3.23
2023-05-23T15:28:51.981Z,3.93
2023-05-23T15:31:18.693Z,3.10
2023-05-23T15:33:45.614Z,3.77
2023-05-23T15:36:13.421Z,3.67
2023-05-23T15:38:40.538Z,3.47
2023-05-23T15:41:07.436Z,2.73
2023-05-23T15:43:35.778Z,3.07
2023-05-23T15:46:02.987Z,2.50
2023-05-23T15:48:29.862Z,3.70
2023-05-23T15:50:57.175Z,3.87
2023-05-23T15:53:24.363Z,3.10
2023-05-23T15:55:51.106Z,3.67
2023-05-23T15:58:17.872Z,3.07
2023-05-23T16:00:44.673Z,3.17
2023-05-23T16:03:11.462Z,3.67
2023-05-23T16:05:38.285Z,3.10
2023-05-23T16:08:05.193Z,3.37
2023-05-23T16:10:31.902Z,3.17
2023-05-23T16:12:59.101Z,2.73
2023-05-23T16:15:26.009Z,3.53
2023-05-23T16:17:52.775Z,3.50
2023-05-23T16:20:19.627Z,3.17
2023-05-23T16:22:46.471Z,3.50
2023-05-23T16:25:13.663Z,3.30
2023-05-23T16:27:40.842Z,3.50
2023-05-23T16:30:10.027Z,3.10
2023-05-23T16:32:36.826Z,2.87
2023-05-23T16:35:03.658Z,3.37
2023-05-23T16:37:30.485Z,2.70
2023-05-23T16:39:57.328Z,3.03
2023-05-23T16:42:24.125Z,3.50
2023-05-23T16:44:51.132Z,3.43
2023-05-23T16:47:17.920Z,3.40
2023-05-23T16:49:45.177Z,3.90
2023-05-23T16:52:11.938Z,3.37
2023-05-23T16:54:38.699Z,3.30
2023-05-23T16:57:05.805Z,3.23
2023-05-23T16:59:32.896Z,3.30
2023-05-23T17:02:00.709Z,2.90
2023-05-23T17:04:27.945Z,2.80
2023-05-23T17:06:54.720Z,3.27
2023-05-23T17:09:22.468Z,3.40
2023-05-23T17:11:49.551Z,2.67
2023-05-23T17:14:16.411Z,3.10
2023-05-23T17:16:43.269Z,2.83
2023-05-23T17:19:10.169Z,2.93
2023-05-23T17:21:37.825Z,3.20
2023-05-23T17:24:04.673Z,2.90
2023-05-23T17:26:31.474Z,3.10
2023-05-23T17:28:58.383Z,3.20
2023-05-23T17:31:25.306Z,2.80
2023-05-23T17:33:52.154Z,2.80
2023-05-23T17:36:18.926Z,2.50
2023-05-23T17:38:45.699Z,2.60
2023-05-23T17:41:14.792Z,2.70
2023-05-23T17:43:42.350Z,3.20
2023-05-23T17:46:09.351Z,2.90
2023-05-23T17:48:47.097Z,3.10
2023-05-23T17:51:15.262Z,2.57
2023-05-23T17:53:42.414Z,3.10
2023-05-23T17:56:09.616Z,2.70
2023-05-23T17:58:41.825Z,3.07
2023-05-23T18:01:11.955Z,2.87
2023-05-23T18:03:39.149Z,3.07
2023-05-23T18:06:06.007Z,2.90
2023-05-23T18:08:33.885Z,3.27
2023-05-23T18:11:00.679Z,2.73
2023-05-23T18:13:27.415Z,2.77
2023-05-23T18:15:54.365Z,2.57
2023-05-23T18:18:21.352Z,2.57
2023-05-23T18:20:48.171Z,2.83
2023-05-23T18:23:14.889Z,2.93
2023-05-23T18:25:41.593Z,2.60
2023-05-23T18:28:08.370Z,2.50
2023-05-23T18:30:35.347Z,2.87
2023-05-23T18:33:02.252Z,3.37
2023-05-23T18:35:29.033Z,2.80
2023-05-23T18:37:56.230Z,2.50
2023-05-23T18:40:24.407Z,2.40
2023-05-23T18:42:51.272Z,2.83
2023-05-23T18:45:18.048Z,2.80
2023-05-23T18:47:44.959Z,2.70
2023-05-23T18:50:13.134Z,3.17
2023-05-23T18:52:40.239Z,2.57
2023-05-23T18:55:07.268Z,2.30
2023-05-23T18:57:34.023Z,3.53
2023-05-23T19:00:00.952Z,3.23
2023-05-23T19:02:27.874Z,2.70
2023-05-23T19:04:54.692Z,2.47
2023-05-23T19:07:21.856Z,3.00
2023-05-23T19:09:48.763Z,2.73
2023-05-23T19:12:15.755Z,3.57
2023-05-23T19:14:42.559Z,2.70
2023-05-23T19:17:09.639Z,2.97
2023-05-23T19:19:37.741Z,3.30
2023-05-23T19:22:04.758Z,3.37
2023-05-23T19:24:32.300Z,3.13
2023-05-23T19:26:59.165Z,3.10
2023-05-23T19:29:26.089Z,3.10
2023-05-23T19:31:53.244Z,3.23
2023-05-23T19:34:20.052Z,3.30
2023-05-23T19:36:46.876Z,3.03
2023-05-23T19:39:13.687Z,2.80
2023-05-23T19:41:41.091Z,3.10
2023-05-23T19:44:07.967Z,3.60
2023-05-23T19:46:34.844Z,2.90
2023-05-23T19:49:02.822Z,3.40
2023-05-23T19:51:29.537Z,2.73
2023-05-23T19:53:56.373Z,3.33
2023-05-23T19:56:23.889Z,3.40
2023-05-23T19:58:50.828Z,3.17
2023-05-23T20:01:17.684Z,3.03
2023-05-23T20:03:44.651Z,4.30
2023-05-23T20:06:11.524Z,4.13
2023-05-23T20:08:38.325Z,3.80
2023-05-23T20:11:05.124Z,3.70
2023-05-23T20:13:32.209Z,3.60
2023-05-23T20:15:59.202Z,2.90
2023-05-23T20:18:26.074Z,3.80
2023-05-23T20:20:53.354Z,3.23
2023-05-23T20:23:20.675Z,3.57
2023-05-23T20:25:48.059Z,3.10
2023-05-23T20:28:14.914Z,3.20
2023-05-23T20:30:41.967Z,3.10
2023-05-23T20:33:09.558Z,3.47
2023-05-23T20:35:36.782Z,2.97
2023-05-23T20:38:03.987Z,3.63
2023-05-23T20:40:33.716Z,3.00
2023-05-23T20:43:04.958Z,3.43
2023-05-23T20:45:32.584Z,3.47
2023-05-23T20:47:59.694Z,3.80
2023-05-23T20:50:26.866Z,4.00
2023-05-23T20:52:54.179Z,2.97
2023-05-23T20:55:22.476Z,3.30
2023-05-23T20:57:49.279Z,3.43
2023-05-23T21:00:16.734Z,3.53
2023-05-23T21:02:43.833Z,3.50
2023-05-23T21:05:11.441Z,3.17
2023-05-23T21:07:38.544Z,3.07
2023-05-23T21:10:05.830Z,2.93
2023-05-23T21:12:33.251Z,3.30
2023-05-23T21:15:00.063Z,3.17
2023-05-23T21:17:26.884Z,3.37
2023-05-23T21:19:53.672Z,3.50
2023-05-23T21:22:20.487Z,3.53
2023-05-23T21:24:47.330Z,2.90
2023-05-23T21:27:14.051Z,2.43
2023-05-23T21:29:41.233Z,2.70
2023-05-23T21:32:08.121Z,3.03
2023-05-23T21:34:34.963Z,2.97
2023-05-23T21:37:01.676Z,2.70
2023-05-23T21:39:39.167Z,3.07
2023-05-23T21:42:14.418Z,3.00
2023-05-23T21:44:41.684Z,2.70
2023-05-23T21:47:08.394Z,2.93
2023-05-23T21:49:35.647Z,3.20
2023-05-23T21:52:02.689Z,2.80
2023-05-23T21:54:29.487Z,3.27
2023-05-23T21:56:56.634Z,2.83
2023-05-23T21:59:23.738Z,3.10
2023-05-23T22:01:50.557Z,2.60
2023-05-23T22:04:20.457Z,2.43
2023-05-23T22:06:47.431Z,3.10
2023-05-23T22:09:15.521Z,2.60
2023-05-23T22:11:42.500Z,2.70
2023-05-23T22:14:09.833Z,2.70
2023-05-23T22:16:39.742Z,3.00
2023-05-23T22:19:07.126Z,2.57
2023-05-23T22:21:33.989Z,2.97
2023-05-23T22:24:00.857Z,2.60
2023-05-23T22:26:28.276Z,2.97
2023-05-23T22:28:55.194Z,2.50
2023-05-23T22:31:24.365Z,3.13
2023-05-23T22:33:51.512Z,2.77
2023-05-23T22:36:18.452Z,3.10
2023-05-23T22:38:45.277Z,2.80
2023-05-23T22:41:12.072Z,3.20
2023-05-23T22:43:39.074Z,2.93
2023-05-23T22:46:07.074Z,2.70
2023-05-23T22:48:34.341Z,2.83
2023-05-23T22:51:04.463Z,3.10
2023-05-23T22:53:31.763Z,2.77
2023-05-23T22:55:58.512Z,2.77
2023-05-23T22:58:25.311Z,2.93
2023-05-23T23:00:52.247Z,2.53
2023-05-23T23:03:19.277Z,2.67
2023-05-23T23:05:46.556Z,3.13
2023-05-23T23:08:13.467Z,2.97
2023-05-23T23:10:41.936Z,2.97
2023-05-23T23:13:08.952Z,2.90
2023-05-23T23:15:36.982Z,2.83
2023-05-23T23:18:05.790Z,3.27
2023-05-23T23:20:33.113Z,2.73
2023-05-23T23:23:00.255Z,2.83
2023-05-23T23:25:27.138Z,2.60
2023-05-23T23:27:53.836Z,2.23
2023-05-23T23:30:20.802Z,3.13
2023-05-23T23:32:47.735Z,2.70
2023-05-23T23:35:14.530Z,2.80
2023-05-23T23:37:41.657Z,3.00
2023-05-23T23:40:09.050Z,3.33
2023-05-23T23:42:35.832Z,2.70
2023-05-23T23:45:03.300Z,2.97
2023-05-23T23:47:32.769Z,2.80
2023-05-23T23:49:59.766Z,2.70
2023-05-23T23:52:28.279Z,2.40
2023-05-23T23:54:55.149Z,3.70
2023-05-23T23:57:21.927Z,2.77
2023-05-23T23:59:48.714Z,2.40
